Purfleet, United Kingdom
Current Conditions -  °F | °C
As of 12:20 AM on Saturday 25 Oct 2014 (Local Time) from EGLC Reporting Station
Scattered Clouds Scattered Clouds  
Wind Chill: 57°   Ceiling: Unl
Heat Index: 57°   Visibility: 6mi
Dew Point: 48°   Wind: 7mph
Humidity: 72%   Direction: 290°WNW
Pressure: 29.97"   Gusts: NA
Location:  51.48°N, 0.24°E
Report Text: EGLC 242320Z AUTO 29006KT 9999 SCT030/// SCT045/// 14/09 Q1015
Loading
Personal Weather Stations






























Interactive Weather Map
Tropical Storm Tracking
New forecast layout! Learn more

10-Day Weather Forecast

Advertisements
Track Severe Weather on mobile